Time,TemperatureF,DewpointF,PressureIn,WindDirection,WindDirectionDegrees,WindSpeedMPH,WindSpeedGustMPH,Humidity,HourlyPrecipIn,Conditions,Clouds,dailyrainin,SoftwareType,DateUTC
2013-04-23 00:08:00,66.6,64.8,29.89,West,270,0.0,-999.0,94,-99.99,,,0.00,Acu-Link.com,2013-04-23 04:08:00,
2013-04-23 00:23:00,66.6,64.8,29.89,SW,225,0.0,-999.0,94,-99.99,,,0.00,Acu-Link.com,2013-04-23 04:23:00,
2013-04-23 00:38:00,66.2,64.7,29.89,West,270,0.0,-999.0,95,-99.99,,,0.00,Acu-Link.com,2013-04-23 04:38:00,
2013-04-23 00:54:00,66.9,65.4,29.88,West,270,0.0,-999.0,95,-99.99,,,0.00,Acu-Link.com,2013-04-23 04:54:00,
2013-04-23 01:09:00,66.9,65.4,29.88,SE,135,0.0,-999.0,95,-99.99,,,0.00,Acu-Link.com,2013-04-23 05:09:00,
2013-04-23 01:24:00,66.4,64.9,29.88,West,270,0.0,-999.0,95,-99.99,,,0.00,Acu-Link.com,2013-04-23 05:24:00,
2013-04-23 01:39:00,66.0,64.8,29.87,West,270,0.0,-999.0,96,-99.99,,,0.00,Acu-Link.com,2013-04-23 05:39:00,
2013-04-23 01:55:00,65.7,64.5,29.87,WSW,247,0.0,-999.0,96,-99.99,,,0.00,Acu-Link.com,2013-04-23 05:55:00,
2013-04-23 02:10:00,65.5,64.3,29.86,West,270,0.0,-999.0,96,-99.99,,,0.00,Acu-Link.com,2013-04-23 06:10:00,
2013-04-23 02:25:00,65.5,64.6,29.86,West,270,0.0,-999.0,97,-99.99,,,0.00,Acu-Link.com,2013-04-23 06:25:00,
2013-04-23 02:41:00,65.3,64.4,29.85,WSW,247,0.0,-999.0,97,-99.99,,,0.00,Acu-Link.com,2013-04-23 06:41:00,
2013-04-23 02:56:00,65.3,64.4,29.85,NNE,22,0.0,-999.0,97,-99.99,,,0.00,Acu-Link.com,2013-04-23 06:56:00,
2013-04-23 03:11:00,65.1,64.2,29.85,West,270,0.0,-999.0,97,-99.99,,,0.00,Acu-Link.com,2013-04-23 07:11:00,
2013-04-23 03:27:00,65.1,64.2,29.84,NNE,22,0.0,-999.0,97,-99.99,,,0.00,Acu-Link.com,2013-04-23 07:27:00,
2013-04-23 03:42:00,65.3,64.4,29.85,WNW,292,1.7,-999.0,97,-99.99,,,0.00,Acu-Link.com,2013-04-23 07:42:00,
2013-04-23 03:57:00,65.7,65.1,29.84,NW,315,0.0,-999.0,98,-99.99,,,0.00,Acu-Link.com,2013-04-23 07:57:00,
2013-04-23 04:12:00,65.8,65.2,29.84,West,270,1.7,-999.0,98,-99.99,,,0.00,Acu-Link.com,2013-04-23 08:12:00,
2013-04-23 04:27:00,66.0,65.4,29.84,NNE,22,1.1,-999.0,98,-99.99,,,0.00,Acu-Link.com,2013-04-23 08:27:00,
2013-04-23 04:43:00,66.2,65.6,29.84,NNW,337,0.0,-999.0,98,-99.99,,,0.00,Acu-Link.com,2013-04-23 08:43:00,
2013-04-23 04:58:00,66.2,65.6,29.84,WNW,292,1.1,-999.0,98,-99.99,,,0.00,Acu-Link.com,2013-04-23 08:58:00,
2013-04-23 05:13:00,66.2,65.6,29.84,NNE,22,0.0,-999.0,98,-99.99,,,0.00,Acu-Link.com,2013-04-23 09:13:00,
2013-04-23 05:29:00,66.2,65.6,29.84,West,270,1.7,-999.0,98,-99.99,,,0.00,Acu-Link.com,2013-04-23 09:29:00,
2013-04-23 05:44:00,66.2,65.6,29.85,West,270,0.0,-999.0,98,-99.99,,,0.00,Acu-Link.com,2013-04-23 09:44:00,
2013-04-23 05:59:00,66.0,65.4,29.85,NNE,22,0.0,-999.0,98,-99.99,,,0.00,Acu-Link.com,2013-04-23 09:59:00,
2013-04-23 06:14:00,65.5,64.9,29.85,NNE,22,0.0,-999.0,98,-99.99,,,0.00,Acu-Link.com,2013-04-23 10:14:00,
2013-04-23 06:29:00,65.3,64.7,29.86,WSW,247,0.0,-999.0,98,-99.99,,,0.00,Acu-Link.com,2013-04-23 10:29:00,
2013-04-23 06:45:00,64.8,64.2,29.86,WNW,292,0.0,-999.0,98,-99.99,,,0.00,Acu-Link.com,2013-04-23 10:45:00,
2013-04-23 07:00:00,64.6,64.0,29.86,WSW,247,0.0,-999.0,98,-99.99,,,0.00,Acu-Link.com,2013-04-23 11:00:00,
2013-04-23 07:15:00,64.9,64.3,29.87,SSW,202,0.0,-999.0,98,-99.99,,,0.00,Acu-Link.com,2013-04-23 11:15:00,
2013-04-23 07:30:00,65.7,65.1,29.87,West,270,0.0,-999.0,98,-99.99,,,0.00,Acu-Link.com,2013-04-23 11:30:00,
2013-04-23 07:46:00,66.7,65.8,29.88,ESE,112,0.0,-999.0,97,-99.99,,,0.00,Acu-Link.com,2013-04-23 11:46:00,
2013-04-23 08:02:00,68.9,67.1,29.88,WSW,247,0.0,-999.0,94,-99.99,,,0.00,Acu-Link.com,2013-04-23 12:02:00,
2013-04-23 08:18:00,72.9,67.8,29.89,WSW,247,1.7,-999.0,84,-99.99,,,0.00,Acu-Link.com,2013-04-23 12:18:00,
2013-04-23 08:33:00,76.1,66.0,29.89,SE,135,3.2,-999.0,71,-99.99,,,0.00,Acu-Link.com,2013-04-23 12:33:00,
2013-04-23 08:48:00,77.2,66.2,29.90,East,90,5.3,-999.0,69,-99.99,,,0.00,Acu-Link.com,2013-04-23 12:48:00,
2013-04-23 09:03:00,77.9,65.6,29.91,ESE,112,2.7,-999.0,66,-99.99,,,0.00,Acu-Link.com,2013-04-23 13:03:00,
2013-04-23 09:19:00,77.9,64.3,29.91,NW,315,3.2,-999.0,63,-99.99,,,0.00,Acu-Link.com,2013-04-23 13:19:00,
2013-04-23 09:34:00,79.0,64.4,29.91,ESE,112,1.7,-999.0,61,-99.99,,,0.00,Acu-Link.com,2013-04-23 13:34:00,
2013-04-23 09:49:00,79.7,65.0,29.92,ESE,112,6.3,-999.0,61,-99.99,,,0.00,Acu-Link.com,2013-04-23 13:49:00,
2013-04-23 10:05:00,79.2,63.6,29.93,East,90,3.7,-999.0,59,-99.99,,,0.00,Acu-Link.com,2013-04-23 14:05:00,
2013-04-23 10:20:00,79.9,64.3,29.93,SSE,157,4.2,-999.0,59,-99.99,,,0.00,Acu-Link.com,2013-04-23 14:20:00,
2013-04-23 10:35:00,80.4,63.7,29.94,ESE,112,2.7,-999.0,57,-99.99,,,0.00,Acu-Link.com,2013-04-23 14:35:00,
2013-04-23 10:50:00,80.2,64.1,29.95,ESE,112,4.7,-999.0,58,-99.99,,,0.00,Acu-Link.com,2013-04-23 14:50:00,
2013-04-23 11:05:00,81.0,63.3,29.96,NNW,337,3.2,-999.0,55,-99.99,,,0.00,Acu-Link.com,2013-04-23 15:05:00,
2013-04-23 11:20:00,82.0,64.2,29.95,East,90,2.7,-999.0,55,-99.99,,,0.00,Acu-Link.com,2013-04-23 15:20:00,
2013-04-23 11:36:00,81.7,64.5,29.94,ESE,112,6.3,-999.0,56,-99.99,,,0.00,Acu-Link.com,2013-04-23 15:36:00,
2013-04-23 11:51:00,83.1,62.5,29.95,SE,135,9.9,-999.0,50,-99.99,,,0.00,Acu-Link.com,2013-04-23 15:51:00,
2013-04-23 12:06:00,84.4,63.1,29.94,ENE,67,4.2,-999.0,49,-99.99,,,0.00,Acu-Link.com,2013-04-23 16:06:00,
2013-04-23 12:21:00,83.1,64.2,29.94,East,90,8.3,-999.0,53,-99.99,,,0.00,Acu-Link.com,2013-04-23 16:21:00,
2013-04-23 12:37:00,83.5,62.9,29.94,ESE,112,2.2,-999.0,50,-99.99,,,0.00,Acu-Link.com,2013-04-23 16:37:00,
2013-04-23 12:52:00,84.4,61.9,29.93,West,270,1.7,-999.0,47,-99.99,,,0.00,Acu-Link.com,2013-04-23 16:52:00,
2013-04-23 13:07:00,83.8,62.6,29.93,North,0,2.7,-999.0,49,-99.99,,,0.00,Acu-Link.com,2013-04-23 17:07:00,
2013-04-23 13:23:00,84.0,62.8,29.93,West,270,2.7,-999.0,49,-99.99,,,0.00,Acu-Link.com,2013-04-23 17:23:00,
2013-04-23 13:38:00,84.6,62.7,29.93,ENE,67,3.7,-999.0,48,-99.99,,,0.00,Acu-Link.com,2013-04-23 17:38:00,
2013-04-23 13:53:00,83.7,62.5,29.92,South,180,2.7,-999.0,49,-99.99,,,0.00,Acu-Link.com,2013-04-23 17:53:00,
2013-04-23 14:09:00,80.2,62.0,29.92,SSE,157,4.2,-999.0,54,-99.99,,,0.00,Acu-Link.com,2013-04-23 18:09:00,
2013-04-23 14:24:00,81.3,62.5,29.93,NE,45,2.7,-999.0,53,-99.99,,,0.00,Acu-Link.com,2013-04-23 18:24:00,
2013-04-23 14:39:00,79.7,63.1,29.92,East,90,3.2,-999.0,57,-99.99,,,0.00,Acu-Link.com,2013-04-23 18:39:00,
2013-04-23 14:54:00,82.0,64.2,29.92,SSE,157,3.7,-999.0,55,-99.99,,,0.00,Acu-Link.com,2013-04-23 18:54:00,
2013-04-23 15:09:00,80.2,64.1,29.92,ESE,112,5.3,-999.0,58,-99.99,,,0.00,Acu-Link.com,2013-04-23 19:09:00,
2013-04-23 15:25:00,80.2,63.6,29.92,SSE,157,1.7,-999.0,57,-99.99,,,0.00,Acu-Link.com,2013-04-23 19:25:00,
2013-04-23 15:40:00,81.3,63.0,29.92,North,0,2.7,-999.0,54,-99.99,,,0.00,Acu-Link.com,2013-04-23 19:40:00,
2013-04-23 15:55:00,77.7,62.2,29.91,East,90,4.7,-999.0,59,-99.99,,,0.00,Acu-Link.com,2013-04-23 19:55:00,
2013-04-23 16:10:00,78.8,62.8,29.92,North,0,3.7,-999.0,58,-99.99,,,0.00,Acu-Link.com,2013-04-23 20:10:00,
2013-04-23 16:25:00,80.4,62.7,29.90,SE,135,2.7,-999.0,55,-99.99,,,0.00,Acu-Link.com,2013-04-23 20:25:00,
2013-04-23 16:41:00,77.9,62.4,29.90,ENE,67,2.2,-999.0,59,-99.99,,,0.00,Acu-Link.com,2013-04-23 20:41:00,
2013-04-23 16:56:00,81.5,62.7,29.90,NW,315,2.2,-999.0,53,-99.99,,,0.00,Acu-Link.com,2013-04-23 20:56:00,
2013-04-23 17:11:00,81.7,62.9,29.90,West,270,3.2,-999.0,53,-99.99,,,0.00,Acu-Link.com,2013-04-23 21:11:00,
2013-04-23 17:27:00,79.5,62.9,29.90,East,90,3.7,-999.0,57,-99.99,,,0.00,Acu-Link.com,2013-04-23 21:27:00,
2013-04-23 17:42:00,78.4,62.9,29.91,SSE,157,1.7,-999.0,59,-99.99,,,0.00,Acu-Link.com,2013-04-23 21:42:00,
2013-04-23 17:57:00,78.1,61.6,29.90,SSW,202,1.7,-999.0,57,-99.99,,,0.00,Acu-Link.com,2013-04-23 21:57:00,
2013-04-23 18:13:00,79.2,62.6,29.92,East,90,5.3,-999.0,57,-99.99,,,0.00,Acu-Link.com,2013-04-23 22:13:00,
2013-04-23 18:28:00,79.0,63.4,29.91,SSE,157,1.7,-999.0,59,-99.99,,,0.00,Acu-Link.com,2013-04-23 22:28:00,
2013-04-23 18:43:00,76.8,63.2,29.92,SSE,157,1.1,-999.0,63,-99.99,,,0.00,Acu-Link.com,2013-04-23 22:43:00,
2013-04-23 18:58:00,75.7,62.6,29.92,SE,135,0.0,-999.0,64,-99.99,,,0.00,Acu-Link.com,2013-04-23 22:58:00,
2013-04-23 19:14:00,74.7,62.6,29.92,SSW,202,2.2,-999.0,66,-99.99,,,0.00,Acu-Link.com,2013-04-23 23:14:00,
2013-04-23 19:29:00,73.2,62.0,29.92,ESE,112,0.0,-999.0,68,-99.99,,,0.00,Acu-Link.com,2013-04-23 23:29:00,
2013-04-23 19:44:00,71.8,61.9,29.92,SE,135,1.7,-999.0,71,-99.99,,,0.00,Acu-Link.com,2013-04-23 23:44:00,
2013-04-23 20:00:00,70.7,62.4,29.92,WNW,292,1.1,-999.0,75,-99.99,,,0.00,Acu-Link.com,2013-04-24 00:00:00,
2013-04-23 20:15:00,70.0,61.7,29.93,NNE,22,0.0,-999.0,75,-99.99,,,0.00,Acu-Link.com,2013-04-24 00:15:00,
2013-04-23 20:30:00,69.4,62.2,29.93,West,270,1.1,-999.0,78,-99.99,,,0.00,Acu-Link.com,2013-04-24 00:30:00,
2013-04-23 20:45:00,69.3,62.5,29.94,SE,135,0.0,-999.0,79,-99.99,,,0.00,Acu-Link.com,2013-04-24 00:45:00,
2013-04-23 21:01:00,68.9,62.5,29.94,WSW,247,1.7,-999.0,80,-99.99,,,0.00,Acu-Link.com,2013-04-24 01:01:00,
2013-04-23 21:16:00,68.7,62.6,29.94,SSE,157,0.0,-999.0,81,-99.99,,,0.00,Acu-Link.com,2013-04-24 01:16:00,
2013-04-23 21:31:00,68.4,62.3,29.95,West,270,1.7,-999.0,81,-99.99,,,0.00,Acu-Link.com,2013-04-24 01:31:00,
2013-04-23 21:46:00,68.0,62.3,29.96,East,90,0.0,-999.0,82,-99.99,,,0.00,Acu-Link.com,2013-04-24 01:46:00,
2013-04-23 22:02:00,67.8,62.1,29.95,SE,135,0.0,-999.0,82,-99.99,,,0.00,Acu-Link.com,2013-04-24 02:02:00,
2013-04-23 22:17:00,67.5,62.1,29.96,SE,135,0.0,-999.0,83,-99.99,,,0.00,Acu-Link.com,2013-04-24 02:17:00,
2013-04-23 22:32:00,67.3,62.0,29.96,South,180,0.0,-999.0,83,-99.99,,,0.00,Acu-Link.com,2013-04-24 02:32:00,
2013-04-23 22:48:00,66.2,61.6,29.96,SE,135,0.0,-999.0,85,-99.99,,,0.00,Acu-Link.com,2013-04-24 02:48:00,
2013-04-23 23:18:00,65.1,61.1,29.95,SE,135,0.0,-999.0,87,-99.99,,,0.00,Acu-Link.com,2013-04-24 03:18:00,
2013-04-23 23:34:00,64.8,61.2,29.96,ESE,112,0.0,-999.0,88,-99.99,,,0.00,Acu-Link.com,2013-04-24 03:34:00,
2013-04-23 23:49:00,64.4,61.1,29.96,WNW,292,0.0,-999.0,89,-99.99,,,0.00,Acu-Link.com,2013-04-24 03:49:00,